Time;durP1;ratioP1;P1;durP2;ratioP2;P2;SDS_P1;SDS_P2;PMS_P1;PMS_P2;Temp;Humidity;BMP_temperature;BMP_pressure;BME280_temperature;BME280_humidity;BME280_pressure;Samples;Min_cycle;Max_cycle;Signal;HPM_P1;HPM_P2
2022/05/18 00:00:52;;;;;;;10.90;6.22;;;18.20;99.90;;;;;;5050897;28;20279;-51
2022/05/18 00:03:25;;;;;;;7.82;5.40;;;18.20;99.90;;;;;;5050726;28;20201;-51
2022/05/18 00:05:54;;;;;;;12.18;5.82;;;18.20;99.90;;;;;;5049839;28;20210;-51
2022/05/18 00:08:22;;;;;;;6.07;5.47;;;18.10;99.90;;;;;;5075728;28;20205;-51
2022/05/18 00:10:51;;;;;;;11.13;6.15;;;18.10;99.90;;;;;;5070978;28;20243;-51
2022/05/18 00:13:20;;;;;;;8.00;5.85;;;18.10;99.90;;;;;;5070491;28;20325;-51
2022/05/18 00:15:48;;;;;;;7.57;5.97;;;18.10;99.90;;;;;;5070864;28;20240;-51
2022/05/18 00:18:16;;;;;;;7.15;5.90;;;18.10;99.90;;;;;;5071138;28;20212;-51
2022/05/18 00:20:45;;;;;;;8.50;6.45;;;18.10;99.90;;;;;;5070636;28;20225;-52
2022/05/18 00:23:13;;;;;;;7.03;6.15;;;18.10;99.90;;;;;;5070149;28;20697;-51
2022/05/18 00:25:42;;;;;;;7.18;5.40;;;18.10;99.90;;;;;;5070947;28;20209;-51
2022/05/18 00:28:10;;;;;;;8.40;5.90;;;18.10;99.90;;;;;;5070579;28;20635;-51
2022/05/18 00:30:40;;;;;;;8.13;5.65;;;18.10;99.90;;;;;;5070722;28;20228;-51
2022/05/18 00:33:10;;;;;;;6.63;5.65;;;18.00;99.90;;;;;;5069937;28;20267;-51
2022/05/18 00:35:39;;;;;;;7.00;5.50;;;18.00;99.90;;;;;;5062893;28;20209;-51
2022/05/18 00:38:10;;;;;;;12.82;5.70;;;18.00;99.90;;;;;;5050545;28;20355;-51
2022/05/18 00:40:41;;;;;;;6.43;5.43;;;18.00;99.90;;;;;;5050347;28;20259;-52
2022/05/18 00:43:17;;;;;;;7.38;5.30;;;18.00;99.90;;;;;;5049934;28;20952;-51
2022/05/18 00:45:46;;;;;;;10.35;5.60;;;18.00;99.90;;;;;;5049524;28;20228;-51
2022/05/18 00:48:14;;;;;;;6.43;5.43;;;17.90;99.90;;;;;;5050133;28;20218;-51
2022/05/18 00:50:43;;;;;;;5.82;5.20;;;17.80;99.90;;;;;;5065471;28;20248;-51
2022/05/18 00:53:19;;;;;;;8.68;5.72;;;17.80;99.90;;;;;;5069557;28;20232;-51
2022/05/18 00:55:56;;;;;;;6.85;5.75;;;17.80;99.90;;;;;;5069813;28;20237;-51
2022/05/18 00:58:31;;;;;;;8.68;5.50;;;17.80;99.90;;;;;;5070132;28;20197;-51
2022/05/18 01:01:00;;;;;;;9.43;5.93;;;17.80;99.90;;;;;;5070017;28;20255;-51
2022/05/18 01:03:32;;;;;;;9.27;5.47;;;17.80;99.90;;;;;;5068358;28;20209;-51
2022/05/18 01:06:05;;;;;;;8.15;5.60;;;17.80;99.90;;;;;;5069843;28;20662;-51
2022/05/18 01:08:50;;;;;;;7.82;6.10;;;17.80;99.90;;;;;;5069882;28;20205;-51
2022/05/18 01:11:19;;;;;;;7.68;6.18;;;17.80;99.90;;;;;;5069928;28;20216;-52
2022/05/18 01:13:47;;;;;;;8.65;5.95;;;17.80;99.90;;;;;;5069048;28;20232;-51
2022/05/18 01:16:15;;;;;;;7.47;6.00;;;17.80;99.90;;;;;;5069999;28;20248;-51
2022/05/18 01:18:44;;;;;;;10.05;7.15;;;17.80;99.90;;;;;;5069767;28;20212;-51
2022/05/18 01:21:12;;;;;;;7.20;6.50;;;17.80;99.90;;;;;;5069691;28;20674;-51
2022/05/18 01:23:54;;;;;;;9.00;6.30;;;17.80;99.90;;;;;;5069238;28;20224;-51
2022/05/18 01:26:41;;;;;;;9.43;5.93;;;17.70;99.90;;;;;;5069928;28;20236;-51
2022/05/18 01:29:10;;;;;;;9.52;5.68;;;17.70;99.90;;;;;;5069911;28;20233;-50
2022/05/18 01:31:49;;;;;;;6.53;5.85;;;17.70;99.90;;;;;;5069406;28;20213;-51
2022/05/18 01:34:19;;;;;;;6.60;5.50;;;17.70;99.90;;;;;;5069668;28;20243;-51
2022/05/18 01:36:48;;;;;;;7.72;6.95;;;17.70;99.90;;;;;;5068011;28;20239;-51
2022/05/18 01:39:20;;;;;;;7.72;6.32;;;17.70;99.90;;;;;;5069581;28;20705;-51
2022/05/18 01:41:55;;;;;;;10.32;5.97;;;17.60;99.90;;;;;;5068847;28;20219;-51
2022/05/18 01:44:24;;;;;;;8.98;5.88;;;17.60;99.90;;;;;;5069681;28;20236;-51
2022/05/18 01:46:52;;;;;;;7.10;6.15;;;17.60;99.90;;;;;;5069048;28;20239;-51
2022/05/18 01:49:21;;;;;;;7.00;5.75;;;17.60;99.90;;;;;;5068698;28;20286;-50
2022/05/18 01:51:52;;;;;;;7.80;5.88;;;17.60;99.90;;;;;;5068789;28;20308;-50
2022/05/18 01:54:20;;;;;;;7.45;6.07;;;17.60;99.90;;;;;;5069449;28;20282;-51
2022/05/18 01:56:48;;;;;;;7.13;5.95;;;17.60;99.90;;;;;;5069307;28;20641;-50
2022/05/18 01:59:18;;;;;;;7.78;6.05;;;17.70;99.90;;;;;;5050740;28;20652;-51
2022/05/18 02:01:47;;;;;;;6.70;6.10;;;17.60;99.90;;;;;;5048662;28;20264;-51
2022/05/18 02:04:15;;;;;;;7.43;6.25;;;17.60;99.90;;;;;;5047747;28;20299;-51
2022/05/18 02:06:43;;;;;;;9.07;6.03;;;17.70;99.90;;;;;;5049150;28;20210;-51
2022/05/18 02:09:16;;;;;;;13.32;5.90;;;17.70;99.90;;;;;;5054562;28;20258;-51
2022/05/18 02:11:44;;;;;;;6.90;5.60;;;17.70;99.90;;;;;;5069193;28;20188;-51
2022/05/18 02:14:12;;;;;;;7.60;5.57;;;17.60;99.90;;;;;;5068620;28;20756;-51
2022/05/18 02:16:42;;;;;;;7.20;6.10;;;17.60;99.90;;;;;;5068787;28;20239;-51
2022/05/18 02:19:10;;;;;;;7.07;6.07;;;17.60;99.90;;;;;;5068932;28;20316;-51
2022/05/18 02:21:38;;;;;;;8.15;6.10;;;17.60;99.90;;;;;;5068814;28;20217;-51
2022/05/18 02:24:07;;;;;;;8.15;5.95;;;17.60;99.90;;;;;;5068998;28;20204;-51
2022/05/18 02:26:35;;;;;;;8.95;6.22;;;17.60;99.90;;;;;;5068538;28;20647;-51
2022/05/18 02:29:04;;;;;;;7.40;6.03;;;17.60;99.90;;;;;;5069230;28;20312;-51
2022/05/18 02:31:32;;;;;;;6.22;5.63;;;17.60;99.90;;;;;;5068706;28;20212;-51
2022/05/18 02:34:02;;;;;;;7.40;5.20;;;17.60;99.90;;;;;;5068461;28;20229;-50
2022/05/18 02:36:30;;;;;;;7.82;6.13;;;17.60;99.90;;;;;;5059513;28;20363;-51
2022/05/18 02:38:58;;;;;;;6.85;6.22;;;17.60;99.90;;;;;;5048656;28;20210;-51
2022/05/18 02:41:26;;;;;;;8.55;6.20;;;17.60;99.90;;;;;;5049244;28;20214;-51
2022/05/18 02:43:54;;;;;;;9.77;6.53;;;17.60;99.90;;;;;;5048232;28;20297;-51
2022/05/18 02:46:23;;;;;;;9.10;6.40;;;17.60;99.90;;;;;;5049087;28;20210;-51
2022/05/18 02:48:52;;;;;;;8.20;5.75;;;17.60;99.90;;;;;;5048824;28;20279;-51
2022/05/18 02:51:22;;;;;;;6.18;5.50;;;17.60;99.90;;;;;;5068597;28;20204;-51
2022/05/18 02:53:51;;;;;;;7.85;5.57;;;17.60;99.90;;;;;;5068193;28;20644;-51
2022/05/18 02:56:23;;;;;;;7.15;5.82;;;17.60;99.90;;;;;;5068643;28;20759;-51
2022/05/18 02:58:54;;;;;;;9.55;6.00;;;17.50;99.90;;;;;;5068566;28;20205;-51
2022/05/18 03:01:25;;;;;;;8.98;6.10;;;17.50;99.90;;;;;;5068953;28;20213;-51
2022/05/18 03:03:54;;;;;;;8.35;6.63;;;17.50;99.90;;;;;;5068420;28;20205;-51
2022/05/18 03:06:25;;;;;;;7.45;6.20;;;17.50;99.90;;;;;;5067789;28;20621;-51
2022/05/18 03:08:54;;;;;;;5.95;5.07;;;17.40;99.90;;;;;;5068846;28;20201;-50
2022/05/18 03:11:22;;;;;;;7.20;5.03;;;17.40;99.90;;;;;;5071764;28;20201;-51
2022/05/18 03:13:50;;;;;;;7.40;5.63;;;17.40;99.90;;;;;;5071467;28;20745;-51
2022/05/18 03:16:19;;;;;;;8.02;5.75;;;17.30;99.90;;;;;;5071762;28;20220;-51
2022/05/18 03:18:47;;;;;;;7.32;5.78;;;17.30;99.90;;;;;;5072301;28;20266;-51
2022/05/18 03:24:02;;;;;;;8.60;6.10;;;17.40;99.90;;;;;;5071693;28;20623;-50
2022/05/18 03:26:30;;;;;;;9.82;6.07;;;17.40;99.90;;;;;;5071863;28;20237;-51
2022/05/18 03:28:58;;;;;;;6.30;5.60;;;17.40;99.90;;;;;;5071271;28;20258;-51
2022/05/18 03:31:27;;;;;;;9.32;6.07;;;17.40;99.90;;;;;;5072114;28;20208;-51
2022/05/18 03:33:58;;;;;;;6.75;5.60;;;17.40;99.90;;;;;;5070991;28;20225;-51
2022/05/18 03:36:26;;;;;;;7.20;5.55;;;17.40;99.90;;;;;;5071792;28;20216;-51
2022/05/18 03:38:55;;;;;;;7.07;5.32;;;17.40;99.90;;;;;;5071784;28;20204;-51
2022/05/18 03:41:25;;;;;;;5.78;5.20;;;17.40;99.90;;;;;;5071743;28;20208;-51
2022/05/18 03:43:53;;;;;;;11.00;5.55;;;17.40;99.90;;;;;;5071286;28;20201;-50
2022/05/18 03:46:21;;;;;;;6.78;5.10;;;17.40;99.90;;;;;;5072053;28;20271;-51
2022/05/18 03:48:49;;;;;;;9.38;5.95;;;17.40;99.90;;;;;;5071769;28;20271;-51
2022/05/18 03:51:17;;;;;;;8.10;5.78;;;17.40;99.90;;;;;;5062805;28;20209;-50
2022/05/18 03:53:46;;;;;;;9.20;6.10;;;17.40;99.90;;;;;;5071062;28;20307;-51
2022/05/18 03:56:15;;;;;;;11.30;6.15;;;17.40;99.90;;;;;;5071751;28;20262;-51
2022/05/18 03:58:44;;;;;;;9.05;6.05;;;17.40;99.90;;;;;;5071797;28;20220;-51
2022/05/18 04:01:13;;;;;;;8.50;5.93;;;17.40;99.90;;;;;;5071186;28;20229;-51
2022/05/18 04:03:42;;;;;;;8.05;5.97;;;17.50;99.90;;;;;;5069278;28;20201;-51
2022/05/18 04:06:11;;;;;;;8.98;6.00;;;17.50;99.90;;;;;;5071144;28;20209;-51
2022/05/18 04:08:40;;;;;;;8.27;5.32;;;17.50;99.90;;;;;;5071207;28;20682;-51
2022/05/18 04:11:09;;;;;;;9.57;5.25;;;17.50;99.90;;;;;;5071485;28;20233;-51
2022/05/18 04:13:37;;;;;;;8.38;4.93;;;17.50;99.90;;;;;;5070521;28;20260;-51
2022/05/18 04:16:08;;;;;;;8.15;5.28;;;17.50;99.90;;;;;;5070750;28;20299;-51
2022/05/18 04:18:37;;;;;;;5.72;5.13;;;17.60;99.90;;;;;;5071046;28;20220;-51
2022/05/18 04:21:06;;;;;;;7.93;5.13;;;17.50;99.90;;;;;;5071015;28;20229;-51
2022/05/18 04:23:37;;;;;;;6.68;5.05;;;17.50;99.90;;;;;;5070647;28;20208;-50
2022/05/18 04:26:05;;;;;;;7.00;6.28;;;17.50;99.90;;;;;;5070853;28;20221;-51
2022/05/18 04:28:33;;;;;;;8.95;6.00;;;17.60;99.90;;;;;;5070417;28;20248;-51
2022/05/18 04:31:01;;;;;;;8.23;5.80;;;17.60;99.90;;;;;;5070617;28;20268;-51
2022/05/18 04:33:31;;;;;;;7.70;5.88;;;17.70;99.90;;;;;;5070362;28;20209;-51
2022/05/18 04:36:02;;;;;;;8.82;5.63;;;17.70;99.90;;;;;;5070466;28;20255;-50
2022/05/18 04:38:32;;;;;;;10.68;6.40;;;17.70;99.90;;;;;;5070405;28;20689;-51
2022/05/18 04:41:00;;;;;;;7.38;5.97;;;17.70;99.90;;;;;;5070097;28;20227;-51
2022/05/18 04:43:32;;;;;;;6.75;6.15;;;17.70;99.90;;;;;;5070084;28;20209;-51
2022/05/18 04:46:00;;;;;;;7.97;5.28;;;17.70;99.90;;;;;;5070140;28;20204;-51
2022/05/18 04:48:30;;;;;;;8.23;5.55;;;17.70;99.90;;;;;;5070647;28;20252;-51
2022/05/18 04:51:04;;;;;;;6.30;5.20;;;17.60;99.90;;;;;;5061056;28;20602;-51
2022/05/18 04:53:34;;;;;;;8.50;5.07;;;17.70;99.90;;;;;;5049938;28;20190;-50
2022/05/18 04:56:03;;;;;;;7.55;4.97;;;17.70;99.90;;;;;;5050307;28;20229;-51
2022/05/18 04:58:31;;;;;;;9.10;4.70;;;18.10;99.90;;;;;;5050041;28;20205;-51
2022/05/18 05:01:02;;;;;;;7.47;4.45;;;18.80;99.90;;;;;;5049978;28;20279;-51
2022/05/18 05:03:30;;;;;;;6.10;4.60;;;19.40;99.90;;;;;;5048082;28;20248;-52
2022/05/18 05:06:04;;;;;;;5.05;4.07;;;20.10;99.90;;;;;;5050352;28;20632;-52
2022/05/18 05:08:34;;;;;;;5.60;3.58;;;20.60;99.90;;;;;;5050742;28;20248;-52
2022/05/18 05:11:03;;;;;;;9.57;4.18;;;21.00;99.90;;;;;;5070704;28;20250;-52
2022/05/18 05:13:31;;;;;;;9.77;4.05;;;21.50;99.90;;;;;;5070321;28;20254;-51
2022/05/18 05:16:01;;;;;;;9.00;3.65;;;21.80;99.90;;;;;;5069878;28;20252;-52
2022/05/18 05:18:29;;;;;;;7.57;3.85;;;22.10;99.90;;;;;;5070216;28;20208;-51
2022/05/18 05:20:57;;;;;;;5.88;4.07;;;22.40;99.90;;;;;;5069535;28;20225;-52
2022/05/18 05:23:27;;;;;;;5.47;3.25;;;22.80;99.90;;;;;;5069459;28;20643;-52
2022/05/18 05:25:57;;;;;;;6.32;3.78;;;22.90;99.90;;;;;;5069916;28;20270;-52
2022/05/18 05:28:25;;;;;;;5.05;3.67;;;22.10;99.90;;;;;;5068954;28;20208;-51
2022/05/18 05:30:53;;;;;;;5.85;3.90;;;22.30;99.90;;;;;;5069628;28;20254;-52
2022/05/18 05:33:22;;;;;;;5.72;4.10;;;22.90;99.90;;;;;;5068710;28;20292;-52
2022/05/18 05:35:58;;;;;;;5.63;4.07;;;23.40;99.90;;;;;;5069415;28;20228;-51
2022/05/18 05:38:28;;;;;;;5.65;3.97;;;24.00;99.90;;;;;;5069661;28;20701;-52
2022/05/18 05:40:57;;;;;;;7.75;4.28;;;24.40;99.90;;;;;;5069371;28;20232;-52
2022/05/18 05:43:25;;;;;;;8.52;3.83;;;24.50;99.90;;;;;;5069158;28;20208;-52
2022/05/18 05:45:56;;;;;;;6.20;4.13;;;23.80;99.90;;;;;;5069055;28;20240;-52
2022/05/18 05:48:25;;;;;;;7.57;4.13;;;23.30;99.90;;;;;;5069528;28;20245;-52
2022/05/18 05:50:53;;;;;;;7.15;4.35;;;23.30;99.90;;;;;;5069418;28;20370;-51
2022/05/18 05:53:21;;;;;;;5.38;4.20;;;23.10;99.90;;;;;;5068642;28;20308;-51
2022/05/18 05:55:51;;;;;;;6.07;3.80;;;22.80;99.90;;;;;;5069519;28;20294;-51
2022/05/18 05:58:20;;;;;;;5.50;4.50;;;22.50;99.90;;;;;;5069169;28;20678;-51
2022/05/18 06:00:49;;;;;;;6.55;4.22;;;22.50;99.90;;;;;;5069442;28;20286;-52
2022/05/18 06:03:18;;;;;;;5.40;4.07;;;23.00;99.90;;;;;;5068781;28;20235;-52
2022/05/18 06:05:47;;;;;;;8.15;4.15;;;22.80;99.90;;;;;;5068601;28;20204;-52
2022/05/18 06:08:15;;;;;;;6.65;4.20;;;22.60;99.90;;;;;;5058656;28;20288;-51
2022/05/18 06:10:43;;;;;;;5.90;3.97;;;22.50;99.90;;;;;;5067179;28;20270;-52
2022/05/18 06:13:13;;;;;;;5.95;4.25;;;22.80;99.90;;;;;;5058906;28;20259;-51
2022/05/18 06:15:41;;;;;;;5.18;4.13;;;23.80;99.90;;;;;;5048928;28;20260;-51
2022/05/18 06:18:10;;;;;;;6.22;3.95;;;23.70;99.90;;;;;;5049008;28;20743;-51
2022/05/18 06:20:47;;;;;;;6.20;4.15;;;23.70;99.90;;;;;;5048997;28;20260;-51
2022/05/18 06:23:16;;;;;;;5.20;4.43;;;23.40;99.90;;;;;;5048537;28;20240;-51
2022/05/18 06:25:46;;;;;;;5.13;4.22;;;23.20;99.90;;;;;;5048851;28;20934;-51
2022/05/18 06:28:16;;;;;;;6.13;4.90;;;23.00;99.90;;;;;;5054532;28;20211;-51
2022/05/18 06:30:44;;;;;;;5.68;5.03;;;23.00;99.90;;;;;;5068886;28;20228;-51
2022/05/18 06:33:13;;;;;;;7.15;4.60;;;23.10;99.90;;;;;;5068559;28;20209;-51
2022/05/18 06:35:41;;;;;;;5.75;5.15;;;23.20;99.90;;;;;;5069020;28;20304;-51
2022/05/18 06:38:13;;;;;;;6.28;5.18;;;24.10;99.90;;;;;;5068745;28;20311;-51
2022/05/18 06:43:29;;;;;;;9.90;5.90;;;24.80;99.90;;;;;;5068427;28;20193;-51
2022/05/18 06:45:58;;;;;;;5.95;5.00;;;24.70;99.90;;;;;;5072810;28;20197;-51
2022/05/18 06:48:26;;;;;;;7.45;4.60;;;24.30;99.90;;;;;;5072220;28;20752;-51
2022/05/18 06:51:15;;;;;;;7.60;5.50;;;24.40;99.90;;;;;;5072057;28;20220;-50
2022/05/18 06:53:43;;;;;;;6.07;4.50;;;24.30;99.90;;;;;;5072051;28;20282;-51
2022/05/18 06:56:11;;;;;;;6.55;4.68;;;24.00;99.90;;;;;;5072662;28;20278;-51
2022/05/18 06:58:41;;;;;;;6.18;4.60;;;23.70;99.90;;;;;;5072643;28;20208;-51
2022/05/18 07:01:15;;;;;;;9.35;5.05;;;23.40;99.90;;;;;;5059333;28;20304;-51
2022/05/18 07:03:44;;;;;;;8.30;5.10;;;23.30;99.90;;;;;;5050594;28;20210;-51
2022/05/18 07:06:13;;;;;;;6.22;4.88;;;23.00;99.90;;;;;;5064680;28;20266;-51
2022/05/18 07:08:41;;;;;;;5.70;4.03;;;23.00;99.90;;;;;;5072244;28;20640;-51
2022/05/18 07:11:10;;;;;;;6.55;4.40;;;23.00;99.90;;;;;;5071667;28;20741;-51
2022/05/18 07:13:38;;;;;;;6.38;4.30;;;23.10;99.90;;;;;;5071315;28;20262;-51
2022/05/18 07:16:08;;;;;;;7.85;4.53;;;23.10;99.90;;;;;;5071861;28;20267;-51
2022/05/18 07:18:36;;;;;;;7.80;4.97;;;23.50;99.90;;;;;;5071868;28;20236;-51
2022/05/18 07:21:06;;;;;;;8.82;4.38;;;24.20;99.90;;;;;;5072209;28;20287;-51
2022/05/18 07:23:34;;;;;;;8.65;4.30;;;24.80;99.90;;;;;;5071598;28;20606;-51
2022/05/18 07:26:03;;;;;;;5.82;4.20;;;24.60;99.90;;;;;;5070739;28;20227;-52
2022/05/18 07:28:31;;;;;;;6.60;4.95;;;24.30;99.90;;;;;;5064219;28;20193;-51
2022/05/18 07:30:59;;;;;;;8.75;5.65;;;24.00;99.90;;;;;;5051467;28;20237;-51
2022/05/18 07:33:29;;;;;;;7.40;4.80;;;23.90;99.90;;;;;;5051480;28;20260;-52
2022/05/18 07:35:57;;;;;;;6.35;4.93;;;23.80;99.90;;;;;;5051623;28;20283;-50
2022/05/18 07:38:27;;;;;;;7.03;4.57;;;23.70;99.90;;;;;;5051630;28;20248;-51
2022/05/18 07:41:06;;;;;;;8.57;4.82;;;23.70;99.90;;;;;;5049741;28;20221;-51
2022/05/18 07:43:34;;;;;;;6.20;4.85;;;23.90;99.90;;;;;;5069411;28;20559;-51
2022/05/18 07:46:02;;;;;;;5.90;5.05;;;24.70;99.90;;;;;;5071454;28;20232;-51
2022/05/18 07:48:32;;;;;;;7.93;5.50;;;24.60;99.90;;;;;;5067988;28;20232;-51
2022/05/18 07:51:00;;;;;;;7.45;5.75;;;24.80;99.90;;;;;;5068496;28;20333;-51
2022/05/18 07:53:29;;;;;;;7.28;4.95;;;24.60;99.90;;;;;;5071085;28;20259;-51
2022/05/18 07:55:57;;;;;;;7.53;5.07;;;24.50;99.90;;;;;;5070477;28;20274;-51
2022/05/18 07:58:25;;;;;;;7.00;5.07;;;24.80;99.90;;;;;;5070071;28;20256;-51
2022/05/18 08:00:53;;;;;;;10.20;5.13;;;24.70;99.90;;;;;;5071262;28;20290;-51
2022/05/18 08:03:21;;;;;;;7.20;4.82;;;24.60;99.90;;;;;;5070503;28;20241;-51
2022/05/18 08:05:50;;;;;;;8.18;5.45;;;24.60;99.90;;;;;;5070828;28;20201;-51
2022/05/18 08:08:21;;;;;;;8.07;5.28;;;24.40;99.90;;;;;;5070997;28;20678;-51
2022/05/18 08:16:21;;;;;;;7.18;4.93;;;24.40;99.90;;;;;;5070796;28;20321;-51
2022/05/18 08:18:50;;;;;;;8.50;4.80;;;24.40;99.90;;;;;;5070219;28;20201;-51
2022/05/18 08:21:20;;;;;;;6.28;4.45;;;24.40;99.90;;;;;;5070970;28;20204;-51
2022/05/18 08:23:49;;;;;;;8.48;5.20;;;24.50;99.90;;;;;;5070470;28;20240;-51
2022/05/18 08:26:24;;;;;;;5.88;4.63;;;24.40;99.90;;;;;;5070510;28;20722;-52
2022/05/18 08:28:53;;;;;;;6.00;4.63;;;24.40;99.90;;;;;;5060434;28;20263;-51
2022/05/18 08:31:23;;;;;;;9.85;4.63;;;24.80;99.90;;;;;;5050655;28;20209;-51
2022/05/18 08:33:52;;;;;;;6.80;4.97;;;25.20;99.90;;;;;;5050263;28;20221;-51
2022/05/18 08:36:24;;;;;;;6.28;4.18;;;25.40;99.90;;;;;;5057196;28;20228;-51
2022/05/18 08:38:53;;;;;;;7.10;4.32;;;25.70;99.90;;;;;;5070752;28;20216;-51
2022/05/18 08:41:22;;;;;;;7.50;4.18;;;25.50;99.90;;;;;;5070465;28;20228;-51
2022/05/18 08:43:54;;;;;;;7.25;4.20;;;25.40;99.90;;;;;;5070252;28;20205;-51
2022/05/18 08:46:35;;;;;;;7.50;4.45;;;25.10;99.90;;;;;;5070316;28;20200;-52
2022/05/18 08:49:12;;;;;;;5.47;4.50;;;25.10;99.90;;;;;;5069854;28;20196;-51
2022/05/18 08:51:54;;;;;;;6.82;4.47;;;24.90;99.90;;;;;;5070069;28;20681;-51
2022/05/18 08:54:44;;;;;;;6.50;4.28;;;24.80;99.90;;;;;;5069924;28;20232;-51
2022/05/18 08:57:19;;;;;;;8.95;4.60;;;24.80;99.90;;;;;;5070394;28;20225;-51
2022/05/18 08:59:52;;;;;;;5.13;3.97;;;24.90;99.90;;;;;;5069301;28;20246;-51
2022/05/18 09:02:30;;;;;;;9.57;4.25;;;24.90;99.90;;;;;;5069807;28;20224;-51
2022/05/18 09:05:03;;;;;;;5.22;4.07;;;25.00;99.90;;;;;;5069595;28;20557;-51
2022/05/18 09:08:01;;;;;;;5.38;4.10;;;25.10;99.90;;;;;;5068846;28;20935;-51
2022/05/18 09:10:36;;;;;;;7.65;4.35;;;25.20;99.90;;;;;;5069881;28;20225;-52
2022/05/18 09:13:05;;;;;;;7.10;4.15;;;25.30;99.90;;;;;;5069811;28;20204;-51
2022/05/18 09:15:38;;;;;;;6.45;3.70;;;25.20;99.90;;;;;;5069996;28;20350;-52
2022/05/18 09:18:17;;;;;;;5.57;3.60;;;25.20;99.90;;;;;;5070139;28;20290;-52
2022/05/18 09:20:49;;;;;;;5.68;3.42;;;25.10;99.90;;;;;;5069991;28;20225;-52
2022/05/18 09:23:40;;;;;;;6.88;3.55;;;25.30;99.90;;;;;;5062405;28;20258;-52
2022/05/18 09:26:28;;;;;;;6.25;3.83;;;25.60;99.90;;;;;;5049725;28;20213;-51
2022/05/18 09:29:04;;;;;;;8.15;4.00;;;25.60;99.90;;;;;;5049897;28;20209;-51
2022/05/18 09:31:46;;;;;;;6.03;3.65;;;25.80;99.90;;;;;;5049153;28;20221;-52
2022/05/18 09:34:36;;;;;;;7.28;3.58;;;25.80;99.90;;;;;;5048945;28;20293;-52
2022/05/18 09:37:21;;;;;;;7.97;3.60;;;26.00;99.90;;;;;;5049724;28;20617;-51
2022/05/18 09:39:55;;;;;;;6.82;3.50;;;26.00;99.90;;;;;;5049656;28;20275;-51
2022/05/18 09:42:28;;;;;;;6.78;3.67;;;25.90;99.90;;;;;;5069157;28;20212;-52
2022/05/18 09:45:00;;;;;;;5.35;3.47;;;26.00;99.90;;;;;;5069766;28;20193;-51
2022/05/18 09:47:33;;;;;;;5.78;3.60;;;26.20;99.90;;;;;;5067753;28;20631;-51
2022/05/18 09:50:06;;;;;;;7.38;3.65;;;26.00;99.90;;;;;;5058845;28;20286;-52
2022/05/18 09:52:37;;;;;;;5.85;3.35;;;26.10;99.90;;;;;;5068096;28;20221;-52
2022/05/18 09:55:09;;;;;;;5.25;3.50;;;25.90;99.90;;;;;;5069449;28;20217;-52
2022/05/18 09:57:43;;;;;;;5.07;3.65;;;26.10;99.90;;;;;;5068958;28;20232;-51
2022/05/18 10:00:15;;;;;;;8.60;4.07;;;26.00;99.90;;;;;;5069460;28;20224;-51
2022/05/18 10:08:22;;;;;;;5.32;3.92;;;26.10;99.90;;;;;;5068926;28;20963;-51
2022/05/18 10:10:58;;;;;;;6.63;3.75;;;26.10;99.90;;;;;;5069192;28;20229;-51
2022/05/18 10:13:31;;;;;;;6.97;3.55;;;26.20;99.90;;;;;;5048579;28;20211;-50
2022/05/18 10:16:16;;;;;;;6.80;3.70;;;26.10;99.90;;;;;;5049372;28;20284;-51
2022/05/18 10:18:49;;;;;;;14.73;4.20;;;26.20;99.90;;;;;;5059019;28;20232;-51
2022/05/18 10:21:26;;;;;;;6.45;3.75;;;26.20;99.90;;;;;;5059567;28;20224;-51
2022/05/18 10:24:02;;;;;;;5.68;3.30;;;26.30;99.90;;;;;;5072253;28;20212;-51
2022/05/18 10:26:34;;;;;;;6.57;3.42;;;26.30;99.90;;;;;;5072318;28;20697;-51
2022/05/18 10:29:07;;;;;;;5.78;3.60;;;26.30;99.90;;;;;;5072633;28;20242;-51
2022/05/18 10:31:37;;;;;;;5.63;3.25;;;26.20;99.90;;;;;;5072907;28;20200;-49
2022/05/18 10:34:23;;;;;;;7.40;3.50;;;26.20;99.90;;;;;;5071609;28;20244;-51
2022/05/18 10:36:54;;;;;;;4.95;2.90;;;26.20;99.90;;;;;;5072095;28;20221;-51
2022/05/18 10:39:40;;;;;;;5.53;3.17;;;26.30;99.90;;;;;;5059188;28;20279;-51
2022/05/18 10:42:17;;;;;;;4.68;3.35;;;26.30;99.90;;;;;;5052296;28;20232;-51
2022/05/18 10:44:46;;;;;;;6.05;3.03;;;26.30;99.90;;;;;;5057593;28;20200;-51
2022/05/18 10:47:22;;;;;;;5.47;3.17;;;26.10;99.90;;;;;;5072243;28;20209;-51
2022/05/18 10:49:50;;;;;;;4.45;3.03;;;26.20;99.90;;;;;;5070747;28;20256;-52
2022/05/18 10:52:20;;;;;;;8.90;3.70;;;26.20;99.90;;;;;;5071995;28;20209;-52
2022/05/18 10:54:55;;;;;;;5.28;3.20;;;26.20;99.90;;;;;;5072425;28;20209;-52
2022/05/18 10:57:31;;;;;;;4.53;3.30;;;26.30;99.90;;;;;;5073114;28;20283;-51
2022/05/18 11:00:05;;;;;;;7.35;3.25;;;26.30;99.90;;;;;;5072374;28;20294;-51
2022/05/18 11:02:41;;;;;;;4.53;2.90;;;26.30;99.90;;;;;;5071079;28;20204;-51
2022/05/18 11:05:20;;;;;;;5.00;2.70;;;26.30;99.90;;;;;;5071965;28;20218;-52
2022/05/18 11:07:50;;;;;;;5.05;2.65;;;26.20;99.90;;;;;;5072389;28;20200;-52
2022/05/18 11:10:18;;;;;;;2.95;2.55;;;26.20;99.90;;;;;;5071501;28;20266;-51
2022/05/18 11:12:53;;;;;;;5.50;2.75;;;26.20;99.90;;;;;;5082543;28;20212;-52
2022/05/18 11:15:32;;;;;;;5.75;3.08;;;26.30;99.90;;;;;;5092347;28;20192;-51
2022/05/18 11:18:09;;;;;;;5.80;3.00;;;26.30;99.90;;;;;;5089351;28;20677;-51
2022/05/18 11:20:46;;;;;;;4.93;2.80;;;26.30;99.90;;;;;;5071774;28;20385;-51
2022/05/18 11:23:30;;;;;;;4.53;3.00;;;26.30;99.90;;;;;;5071774;28;20209;-52
2022/05/18 11:26:14;;;;;;;7.10;2.88;;;26.30;99.90;;;;;;5071968;28;20638;-51
2022/05/18 11:29:31;;;;;;;4.63;3.25;;;26.40;99.90;;;;;;5072078;28;20208;-52
2022/05/18 11:32:16;;;;;;;6.07;2.80;;;26.40;99.90;;;;;;5070266;28;20213;-52
2022/05/18 11:34:55;;;;;;;4.88;3.00;;;26.40;99.90;;;;;;5071837;28;20266;-52
2022/05/18 11:37:48;;;;;;;5.57;2.75;;;26.30;99.90;;;;;;5071241;28;20252;-52
2022/05/18 11:40:24;;;;;;;4.30;2.80;;;26.30;99.90;;;;;;5071724;28;20224;-52
2022/05/18 11:43:25;;;;;;;4.18;2.80;;;26.30;99.90;;;;;;5070953;28;20736;-52
2022/05/18 11:46:05;;;;;;;6.65;3.08;;;26.30;99.90;;;;;;5071456;28;20209;-52
2022/05/18 11:48:44;;;;;;;5.57;2.70;;;26.30;99.90;;;;;;5070580;28;20618;-51
2022/05/18 11:51:19;;;;;;;4.07;2.70;;;26.40;99.90;;;;;;5071325;28;20312;-51
2022/05/18 11:53:56;;;;;;;2.88;2.35;;;26.50;99.90;;;;;;5070767;28;20269;-52
2022/05/18 11:56:36;;;;;;;4.38;3.00;;;26.40;99.90;;;;;;5071474;28;20250;-52
2022/05/18 11:59:44;;;;;;;5.05;2.85;;;26.40;99.90;;;;;;5070916;28;20274;-52
2022/05/18 12:02:36;;;;;;;5.70;2.80;;;26.50;99.90;;;;;;5071200;28;20209;-52
2022/05/18 12:05:34;;;;;;;5.75;3.10;;;26.50;99.90;;;;;;5071093;28;20631;-52
2022/05/18 12:08:27;;;;;;;5.32;2.83;;;26.50;99.90;;;;;;5016593;28;20277;-52
2022/05/18 12:11:05;;;;;;;5.85;3.13;;;26.60;99.90;;;;;;5051030;28;20230;-51
2022/05/18 12:13:41;;;;;;;5.70;2.90;;;26.70;99.90;;;;;;5050802;28;20217;-52
2022/05/18 12:16:19;;;;;;;3.38;2.70;;;26.60;99.90;;;;;;5050991;28;20210;-51
2022/05/18 12:19:03;;;;;;;5.10;2.88;;;26.70;99.90;;;;;;5060586;28;20252;-52
2022/05/18 12:21:37;;;;;;;4.97;2.72;;;26.80;99.90;;;;;;5070443;28;20270;-52
2022/05/18 12:24:07;;;;;;;4.85;3.00;;;26.80;99.90;;;;;;5052606;28;20275;-52
2022/05/18 12:26:38;;;;;;;4.80;2.92;;;26.80;99.90;;;;;;5050494;28;20272;-52
2022/05/18 12:29:08;;;;;;;5.38;3.10;;;26.80;99.90;;;;;;5049966;28;20237;-52
2022/05/18 12:31:38;;;;;;;5.00;3.40;;;26.70;99.90;;;;;;5050414;28;20291;-51
2022/05/18 12:34:20;;;;;;;4.82;3.17;;;26.70;99.90;;;;;;5049692;28;20213;-52
2022/05/18 12:36:53;;;;;;;4.25;2.90;;;26.70;99.90;;;;;;5050095;28;20212;-51
2022/05/18 12:39:40;;;;;;;5.07;2.90;;;26.90;99.90;;;;;;5050013;28;20233;-52
2022/05/18 12:42:11;;;;;;;4.78;2.78;;;26.90;99.90;;;;;;5049377;28;20193;-51
2022/05/18 12:44:42;;;;;;;6.00;3.30;;;26.80;99.90;;;;;;5050042;28;20285;-51
2022/05/18 12:47:20;;;;;;;4.95;2.83;;;26.90;99.90;;;;;;5049867;28;20264;-51
2022/05/18 12:49:56;;;;;;;5.57;3.03;;;26.90;99.90;;;;;;5059788;28;20276;-51
2022/05/18 12:52:50;;;;;;;6.13;2.90;;;27.00;99.90;;;;;;5069338;28;20258;-51
2022/05/18 12:55:37;;;;;;;3.28;2.80;;;27.00;99.90;;;;;;5069387;28;20213;-51
2022/05/18 12:58:23;;;;;;;4.38;2.83;;;27.00;99.90;;;;;;5072783;28;20212;-52
2022/05/18 13:00:57;;;;;;;3.83;2.70;;;26.90;99.90;;;;;;5090127;28;20259;-51
2022/05/18 13:03:42;;;;;;;5.90;2.60;;;26.70;99.90;;;;;;5090073;28;20205;-51
2022/05/18 13:06:18;;;;;;;5.45;2.75;;;26.70;99.90;;;;;;5082520;28;20662;-52
2022/05/18 13:09:25;;;;;;;5.07;2.70;;;26.80;99.90;;;;;;5070190;28;20197;-52
2022/05/18 13:11:58;;;;;;;4.82;2.40;;;26.80;99.90;;;;;;5069147;28;20261;-51
2022/05/18 13:14:42;;;;;;;5.65;2.78;;;26.70;99.90;;;;;;5069795;28;20209;-51
2022/05/18 13:17:21;;;;;;;3.50;2.60;;;26.70;99.90;;;;;;5069198;28;20219;-51
2022/05/18 13:19:59;;;;;;;2.72;2.42;;;26.80;99.90;;;;;;5051577;28;20318;-51
2022/05/18 13:22:49;;;;;;;4.53;2.42;;;26.80;99.90;;;;;;5049327;28;20205;-51
2022/05/18 13:25:18;;;;;;;4.20;2.60;;;26.90;99.90;;;;;;5049789;28;20675;-52
2022/05/18 13:27:52;;;;;;;3.95;2.63;;;27.00;99.90;;;;;;5049316;28;20205;-52
2022/05/18 13:30:28;;;;;;;3.47;2.40;;;27.00;99.90;;;;;;5049480;28;20287;-51